createdAt,value
2023-05-23T03:44:46.600Z,54.10
2023-05-23T03:46:48.200Z,54.10
2023-05-23T03:48:49.774Z,54.00
2023-05-23T03:50:51.387Z,54.00
2023-05-23T03:52:53.293Z,54.00
2023-05-23T03:54:54.862Z,54.10
2023-05-23T03:56:56.811Z,54.10
2023-05-23T03:58:58.402Z,54.00
2023-05-23T04:01:01.867Z,54.00
2023-05-23T04:03:04.795Z,54.00
2023-05-23T04:05:07.051Z,54.00
2023-05-23T04:07:09.859Z,54.00
2023-05-23T04:09:11.567Z,54.00
2023-05-23T04:11:13.125Z,54.10
2023-05-23T04:13:15.254Z,54.20
2023-05-23T04:15:17.899Z,54.10
2023-05-23T04:17:19.487Z,54.10
2023-05-23T04:19:21.432Z,54.30
2023-05-23T04:21:23.059Z,54.60
2023-05-23T04:23:24.744Z,54.40
2023-05-23T04:25:26.660Z,54.40
2023-05-23T04:27:28.228Z,54.30
2023-05-23T04:29:31.633Z,54.50
2023-05-23T04:31:34.217Z,54.50
2023-05-23T04:33:36.002Z,54.60
2023-05-23T04:35:40.903Z,54.60
2023-05-23T04:37:42.788Z,54.50
2023-05-23T04:39:44.484Z,54.70
2023-05-23T04:41:46.237Z,54.70
2023-05-23T04:43:47.800Z,54.70
2023-05-23T04:45:54.315Z,54.70
2023-05-23T04:47:56.438Z,54.80
2023-05-23T04:49:58.412Z,54.90
2023-05-23T04:51:59.994Z,54.80
2023-05-23T04:54:02.110Z,55.10
2023-05-23T04:56:03.780Z,55.00
2023-05-23T04:58:05.482Z,55.00
2023-05-23T05:00:10.434Z,55.10
2023-05-23T05:02:12.116Z,55.20
2023-05-23T05:04:13.759Z,55.20
2023-05-23T05:06:16.387Z,55.10
2023-05-23T05:08:19.939Z,55.20
2023-05-23T05:10:21.627Z,56.00
2023-05-23T05:12:23.221Z,55.10
2023-05-23T05:14:26.352Z,55.10
2023-05-23T05:16:27.961Z,55.20
2023-05-23T05:18:30.149Z,55.10
2023-05-23T05:20:31.756Z,55.10
2023-05-23T05:22:33.644Z,55.10
2023-05-23T05:24:35.342Z,55.20
2023-05-23T05:26:37.090Z,55.10
2023-05-23T05:28:38.718Z,55.30
2023-05-23T05:30:40.593Z,55.10
2023-05-23T05:32:46.079Z,55.10
2023-05-23T05:34:49.519Z,55.10
2023-05-23T05:36:55.856Z,55.10
2023-05-23T05:38:57.447Z,55.20
2023-05-23T05:40:59.037Z,55.20
2023-05-23T05:43:00.678Z,55.00
2023-05-23T05:45:02.381Z,55.10
2023-05-23T05:47:04.086Z,55.10
2023-05-23T05:49:05.796Z,55.10
2023-05-23T05:51:07.430Z,55.00
2023-05-23T05:53:09.261Z,55.00
2023-05-23T05:55:11.481Z,55.10
2023-05-23T05:57:13.127Z,54.90
2023-05-23T05:59:14.760Z,55.00
2023-05-23T06:01:16.399Z,54.80
2023-05-23T06:03:18.208Z,54.80
2023-05-23T06:05:20.034Z,54.40
2023-05-23T06:07:21.674Z,54.60
2023-05-23T06:09:23.306Z,54.80
2023-05-23T06:11:25.269Z,54.80
2023-05-23T06:13:26.847Z,54.80
2023-05-23T06:15:28.472Z,54.90
2023-05-23T06:17:30.087Z,54.90
2023-05-23T06:19:31.854Z,54.90
2023-05-23T06:21:33.562Z,55.10
2023-05-23T06:23:35.349Z,55.10
2023-05-23T06:25:36.977Z,55.00
2023-05-23T06:27:38.754Z,54.90
2023-05-23T06:29:40.426Z,55.00
2023-05-23T06:31:42.180Z,55.00
2023-05-23T06:33:43.860Z,55.00
2023-05-23T06:35:45.533Z,54.90
2023-05-23T06:37:48.306Z,54.90
2023-05-23T06:39:49.880Z,54.90
2023-05-23T06:41:51.495Z,55.00
2023-05-23T06:43:53.112Z,54.90
2023-05-23T06:45:54.736Z,54.80
2023-05-23T06:47:56.533Z,54.90
2023-05-23T06:49:58.137Z,54.90
2023-05-23T06:51:59.769Z,54.90
2023-05-23T06:54:01.423Z,54.90
2023-05-23T06:56:02.991Z,54.90
2023-05-23T06:58:04.672Z,54.90
2023-05-23T07:00:06.616Z,55.00
2023-05-23T07:02:08.282Z,54.90
2023-05-23T07:04:09.924Z,54.90
2023-05-23T07:06:11.997Z,54.90
2023-05-23T07:08:13.702Z,54.90
2023-05-23T07:10:15.628Z,54.90
2023-05-23T07:12:17.249Z,54.90
2023-05-23T07:14:20.200Z,55.60
2023-05-23T07:16:21.848Z,54.90
2023-05-23T07:18:24.034Z,54.90
2023-05-23T07:20:25.893Z,54.90
2023-05-23T07:22:27.615Z,54.90
2023-05-23T07:24:29.313Z,55.00
2023-05-23T07:26:30.925Z,54.90
2023-05-23T07:28:32.581Z,54.90
2023-05-23T07:30:34.254Z,54.80
2023-05-23T07:32:36.383Z,54.90
2023-05-23T07:34:38.248Z,54.90
2023-05-23T07:36:40.881Z,54.80
2023-05-23T07:38:42.538Z,54.80
2023-05-23T07:40:45.391Z,54.80
2023-05-23T07:42:53.191Z,54.80
2023-05-23T07:44:54.760Z,54.80
2023-05-23T07:46:56.455Z,54.80
2023-05-23T07:48:58.180Z,54.80
2023-05-23T07:50:59.881Z,54.70
2023-05-23T07:53:01.476Z,54.70
2023-05-23T07:55:03.167Z,54.70
2023-05-23T07:57:04.943Z,54.80
2023-05-23T07:59:06.621Z,54.70
2023-05-23T08:01:08.572Z,54.70
2023-05-23T08:03:10.266Z,54.70
2023-05-23T08:05:11.991Z,54.70
2023-05-23T08:07:13.678Z,54.70
2023-05-23T08:09:16.471Z,54.70
2023-05-23T08:11:18.413Z,54.70
2023-05-23T08:13:20.100Z,54.60
2023-05-23T08:15:23.497Z,54.60
2023-05-23T08:17:25.249Z,54.60
2023-05-23T08:19:27.062Z,54.60
2023-05-23T08:21:28.797Z,54.60
2023-05-23T08:23:30.489Z,54.60
2023-05-23T08:25:32.384Z,54.60
2023-05-23T08:27:35.949Z,54.60
2023-05-23T08:29:38.433Z,54.50
2023-05-23T08:31:40.163Z,54.50
2023-05-23T08:33:41.989Z,54.50
2023-05-23T08:35:43.695Z,54.40
2023-05-23T08:37:46.194Z,54.50
2023-05-23T08:39:47.825Z,54.40
2023-05-23T08:41:49.661Z,54.40
2023-05-23T08:43:51.525Z,54.40
2023-05-23T08:45:53.656Z,54.40
2023-05-23T08:47:55.585Z,54.30
2023-05-23T08:49:58.020Z,54.30
2023-05-23T08:52:02.768Z,54.20
2023-05-23T08:54:06.108Z,54.30
2023-05-23T08:56:08.327Z,54.10
2023-05-23T08:58:10.221Z,54.20
2023-05-23T09:00:14.875Z,54.10
2023-05-23T09:02:16.685Z,54.10
2023-05-23T09:04:18.416Z,54.20
2023-05-23T09:06:23.088Z,54.20
2023-05-23T09:08:24.868Z,54.20
2023-05-23T09:10:29.856Z,54.10
2023-05-23T09:12:33.340Z,54.10
2023-05-23T09:14:37.434Z,54.10
2023-05-23T09:16:39.041Z,54.10
2023-05-23T09:18:41.573Z,53.90
2023-05-23T09:20:43.946Z,54.00
2023-05-23T09:22:46.810Z,54.00
2023-05-23T09:24:50.465Z,54.10
2023-05-23T09:26:52.112Z,54.00
2023-05-23T09:28:56.914Z,53.50
2023-05-23T09:30:59.641Z,53.40
2023-05-23T09:33:05.575Z,52.90
2023-05-23T09:35:08.050Z,52.40
2023-05-23T09:37:13.322Z,52.50
2023-05-23T09:39:14.956Z,52.50
2023-05-23T09:41:16.579Z,52.40
2023-05-23T09:43:18.892Z,52.20
2023-05-23T09:45:20.656Z,51.80
2023-05-23T09:47:22.480Z,50.90
2023-05-23T09:49:26.597Z,50.80
